sensor_id;sensor_type;location;lat;lon;timestamp;P1;durP1;ratioP1;P2;durP2;ratioP2
65047;SDS011;52089;51.362;-2.384;2023-02-17T00:02:31;0.33;;;0.20;;
65047;SDS011;52089;51.362;-2.384;2023-02-17T00:06:14;0.37;;;0.30;;
65047;SDS011;52089;51.362;-2.384;2023-02-17T00:09:57;0.80;;;0.27;;
65047;SDS011;52089;51.362;-2.384;2023-02-17T00:13:39;0.13;;;0.13;;
65047;SDS011;52089;51.362;-2.384;2023-02-17T00:17:22;0.43;;;0.30;;
65047;SDS011;52089;51.362;-2.384;2023-02-17T00:21:11;0.30;;;0.20;;
65047;SDS011;52089;51.362;-2.384;2023-02-17T00:24:57;0.30;;;0.30;;
65047;SDS011;52089;51.362;-2.384;2023-02-17T00:28:39;0.20;;;0.20;;
65047;SDS011;52089;51.362;-2.384;2023-02-17T00:32:21;0.20;;;0.20;;
65047;SDS011;52089;51.362;-2.384;2023-02-17T00:36:04;0.30;;;0.20;;
65047;SDS011;52089;51.362;-2.384;2023-02-17T00:39:47;0.43;;;0.20;;
65047;SDS011;52089;51.362;-2.384;2023-02-17T00:43:29;0.40;;;0.23;;
65047;SDS011;52089;51.362;-2.384;2023-02-17T00:47:11;0.43;;;0.27;;
65047;SDS011;52089;51.362;-2.384;2023-02-17T00:50:53;0.40;;;0.20;;
65047;SDS011;52089;51.362;-2.384;2023-02-17T00:54:34;0.50;;;0.30;;
65047;SDS011;52089;51.362;-2.384;2023-02-17T00:58:16;0.57;;;0.27;;
65047;SDS011;52089;51.362;-2.384;2023-02-17T01:01:58;0.50;;;0.20;;
65047;SDS011;52089;51.362;-2.384;2023-02-17T01:05:41;0.83;;;0.23;;
65047;SDS011;52089;51.362;-2.384;2023-02-17T01:09:23;0.70;;;0.30;;
65047;SDS011;52089;51.362;-2.384;2023-02-17T01:13:06;0.50;;;0.20;;
65047;SDS011;52089;51.362;-2.384;2023-02-17T01:16:48;0.40;;;0.10;;
65047;SDS011;52089;51.362;-2.384;2023-02-17T01:20:33;0.57;;;0.30;;
65047;SDS011;52089;51.362;-2.384;2023-02-17T01:24:16;0.60;;;0.10;;
65047;SDS011;52089;51.362;-2.384;2023-02-17T01:27:58;1.10;;;0.20;;
65047;SDS011;52089;51.362;-2.384;2023-02-17T01:31:40;0.47;;;0.20;;
65047;SDS011;52089;51.362;-2.384;2023-02-17T01:35:22;0.20;;;0.10;;
65047;SDS011;52089;51.362;-2.384;2023-02-17T01:39:03;0.33;;;0.20;;
65047;SDS011;52089;51.362;-2.384;2023-02-17T01:42:45;0.40;;;0.30;;
65047;SDS011;52089;51.362;-2.384;2023-02-17T01:46:27;0.83;;;0.20;;
65047;SDS011;52089;51.362;-2.384;2023-02-17T01:50:12;0.60;;;0.20;;
65047;SDS011;52089;51.362;-2.384;2023-02-17T01:54:00;0.10;;;0.10;;
65047;SDS011;52089;51.362;-2.384;2023-02-17T01:57:55;0.10;;;0.10;;
65047;SDS011;52089;51.362;-2.384;2023-02-17T02:01:39;0.27;;;0.20;;
65047;SDS011;52089;51.362;-2.384;2023-02-17T02:05:21;0.70;;;0.20;;
65047;SDS011;52089;51.362;-2.384;2023-02-17T02:09:07;0.80;;;0.30;;
65047;SDS011;52089;51.362;-2.384;2023-02-17T02:12:58;0.43;;;0.20;;
65047;SDS011;52089;51.362;-2.384;2023-02-17T02:25:18;1.90;;;0.20;;
65047;SDS011;52089;51.362;-2.384;2023-02-17T02:33:25;0.30;;;0.10;;
65047;SDS011;52089;51.362;-2.384;2023-02-17T02:40:59;0.20;;;0.10;;
65047;SDS011;52089;51.362;-2.384;2023-02-17T02:44:46;0.30;;;0.20;;
65047;SDS011;52089;51.362;-2.384;2023-02-17T02:48:28;0.27;;;0.10;;
65047;SDS011;52089;51.362;-2.384;2023-02-17T02:52:15;0.17;;;0.10;;
65047;SDS011;52089;51.362;-2.384;2023-02-17T02:56:25;0.47;;;0.10;;
65047;SDS011;52089;51.362;-2.384;2023-02-17T03:04:42;0.43;;;0.20;;
65047;SDS011;52089;51.362;-2.384;2023-02-17T03:08:20;0.83;;;0.10;;
65047;SDS011;52089;51.362;-2.384;2023-02-17T03:12:02;0.43;;;0.20;;
65047;SDS011;52089;51.362;-2.384;2023-02-17T03:15:44;1.00;;;0.27;;
65047;SDS011;52089;51.362;-2.384;2023-02-17T03:19:26;0.30;;;0.20;;
65047;SDS011;52089;51.362;-2.384;2023-02-17T03:23:08;0.43;;;0.40;;
65047;SDS011;52089;51.362;-2.384;2023-02-17T03:26:50;0.23;;;0.10;;
65047;SDS011;52089;51.362;-2.384;2023-02-17T03:30:32;0.10;;;0.10;;
65047;SDS011;52089;51.362;-2.384;2023-02-17T03:34:15;0.33;;;0.10;;
65047;SDS011;52089;51.362;-2.384;2023-02-17T03:37:56;0.10;;;0.10;;
65047;SDS011;52089;51.362;-2.384;2023-02-17T03:41:38;1.03;;;0.30;;
65047;SDS011;52089;51.362;-2.384;2023-02-17T03:45:20;0.53;;;0.20;;
65047;SDS011;52089;51.362;-2.384;2023-02-17T03:49:02;0.90;;;0.30;;
65047;SDS011;52089;51.362;-2.384;2023-02-17T03:52:44;0.33;;;0.10;;
65047;SDS011;52089;51.362;-2.384;2023-02-17T03:56:27;0.50;;;0.10;;
65047;SDS011;52089;51.362;-2.384;2023-02-17T04:00:09;0.47;;;0.20;;
65047;SDS011;52089;51.362;-2.384;2023-02-17T04:03:51;0.27;;;0.10;;
65047;SDS011;52089;51.362;-2.384;2023-02-17T04:07:33;0.10;;;0.10;;
65047;SDS011;52089;51.362;-2.384;2023-02-17T04:11:15;0.33;;;0.10;;
65047;SDS011;52089;51.362;-2.384;2023-02-17T04:14:56;0.13;;;0.00;;
65047;SDS011;52089;51.362;-2.384;2023-02-17T04:18:38;0.17;;;0.10;;
65047;SDS011;52089;51.362;-2.384;2023-02-17T04:22:20;0.23;;;0.10;;
65047;SDS011;52089;51.362;-2.384;2023-02-17T04:26:02;0.13;;;0.10;;
65047;SDS011;52089;51.362;-2.384;2023-02-17T04:29:45;0.40;;;0.10;;
65047;SDS011;52089;51.362;-2.384;2023-02-17T04:33:27;0.40;;;0.10;;
65047;SDS011;52089;51.362;-2.384;2023-02-17T04:37:09;0.30;;;0.13;;
65047;SDS011;52089;51.362;-2.384;2023-02-17T04:40:52;0.23;;;0.10;;
65047;SDS011;52089;51.362;-2.384;2023-02-17T04:44:35;1.27;;;0.20;;
65047;SDS011;52089;51.362;-2.384;2023-02-17T04:48:17;0.10;;;0.10;;
65047;SDS011;52089;51.362;-2.384;2023-02-17T04:51:59;0.50;;;0.10;;
65047;SDS011;52089;51.362;-2.384;2023-02-17T04:55:41;0.20;;;0.10;;
65047;SDS011;52089;51.362;-2.384;2023-02-17T04:59:23;0.30;;;0.13;;
65047;SDS011;52089;51.362;-2.384;2023-02-17T05:03:05;0.40;;;0.10;;
65047;SDS011;52089;51.362;-2.384;2023-02-17T05:06:47;0.30;;;0.10;;
65047;SDS011;52089;51.362;-2.384;2023-02-17T05:10:29;0.20;;;0.10;;
65047;SDS011;52089;51.362;-2.384;2023-02-17T05:14:11;0.00;;;0.00;;
65047;SDS011;52089;51.362;-2.384;2023-02-17T05:17:53;0.63;;;0.20;;
65047;SDS011;52089;51.362;-2.384;2023-02-17T05:21:35;0.20;;;0.10;;
65047;SDS011;52089;51.362;-2.384;2023-02-17T05:25:17;0.43;;;0.10;;
65047;SDS011;52089;51.362;-2.384;2023-02-17T05:28:58;0.47;;;0.20;;
65047;SDS011;52089;51.362;-2.384;2023-02-17T05:32:41;0.30;;;0.10;;
65047;SDS011;52089;51.362;-2.384;2023-02-17T05:36:22;0.20;;;0.10;;
65047;SDS011;52089;51.362;-2.384;2023-02-17T05:40:04;0.20;;;0.10;;
65047;SDS011;52089;51.362;-2.384;2023-02-17T05:43:47;0.77;;;0.10;;
65047;SDS011;52089;51.362;-2.384;2023-02-17T05:47:29;0.23;;;0.10;;
65047;SDS011;52089;51.362;-2.384;2023-02-17T05:51:11;0.30;;;0.10;;
65047;SDS011;52089;51.362;-2.384;2023-02-17T05:54:57;0.53;;;0.10;;
65047;SDS011;52089;51.362;-2.384;2023-02-17T05:58:38;0.10;;;0.10;;
65047;SDS011;52089;51.362;-2.384;2023-02-17T06:02:20;0.20;;;0.10;;
65047;SDS011;52089;51.362;-2.384;2023-02-17T06:06:02;0.27;;;0.10;;
65047;SDS011;52089;51.362;-2.384;2023-02-17T06:09:46;0.30;;;0.10;;
65047;SDS011;52089;51.362;-2.384;2023-02-17T06:13:27;1.50;;;0.10;;
65047;SDS011;52089;51.362;-2.384;2023-02-17T06:17:09;0.00;;;0.00;;
65047;SDS011;52089;51.362;-2.384;2023-02-17T06:20:53;0.50;;;0.10;;
65047;SDS011;52089;51.362;-2.384;2023-02-17T06:24:38;0.30;;;0.10;;
65047;SDS011;52089;51.362;-2.384;2023-02-17T06:28:20;0.23;;;0.10;;
65047;SDS011;52089;51.362;-2.384;2023-02-17T06:32:02;0.47;;;0.10;;
65047;SDS011;52089;51.362;-2.384;2023-02-17T06:35:47;0.10;;;0.10;;
65047;SDS011;52089;51.362;-2.384;2023-02-17T06:39:30;0.47;;;0.10;;
65047;SDS011;52089;51.362;-2.384;2023-02-17T06:43:12;0.33;;;0.10;;
65047;SDS011;52089;51.362;-2.384;2023-02-17T06:46:53;0.27;;;0.10;;
65047;SDS011;52089;51.362;-2.384;2023-02-17T06:50:35;0.80;;;0.10;;
65047;SDS011;52089;51.362;-2.384;2023-02-17T06:54:17;0.10;;;0.10;;
65047;SDS011;52089;51.362;-2.384;2023-02-17T06:57:59;0.40;;;0.10;;
65047;SDS011;52089;51.362;-2.384;2023-02-17T07:01:41;0.50;;;0.10;;
65047;SDS011;52089;51.362;-2.384;2023-02-17T07:05:23;0.10;;;0.07;;
65047;SDS011;52089;51.362;-2.384;2023-02-17T07:09:05;0.27;;;0.03;;
65047;SDS011;52089;51.362;-2.384;2023-02-17T07:12:47;0.60;;;0.10;;
65047;SDS011;52089;51.362;-2.384;2023-02-17T07:16:29;0.60;;;0.10;;
65047;SDS011;52089;51.362;-2.384;2023-02-17T07:20:11;0.87;;;0.10;;
65047;SDS011;52089;51.362;-2.384;2023-02-17T07:23:53;0.10;;;0.10;;
65047;SDS011;52089;51.362;-2.384;2023-02-17T07:27:35;0.30;;;0.03;;
65047;SDS011;52089;51.362;-2.384;2023-02-17T07:31:17;0.47;;;0.10;;
65047;SDS011;52089;51.362;-2.384;2023-02-17T07:34:59;0.67;;;0.20;;
65047;SDS011;52089;51.362;-2.384;2023-02-17T07:38:41;0.10;;;0.10;;
65047;SDS011;52089;51.362;-2.384;2023-02-17T07:42:25;0.50;;;0.10;;
65047;SDS011;52089;51.362;-2.384;2023-02-17T07:46:08;1.17;;;0.20;;
65047;SDS011;52089;51.362;-2.384;2023-02-17T07:49:51;0.33;;;0.17;;
65047;SDS011;52089;51.362;-2.384;2023-02-17T07:53:33;0.83;;;0.13;;
65047;SDS011;52089;51.362;-2.384;2023-02-17T07:57:15;0.60;;;0.20;;
65047;SDS011;52089;51.362;-2.384;2023-02-17T08:00:57;0.93;;;0.20;;
65047;SDS011;52089;51.362;-2.384;2023-02-17T08:04:45;1.60;;;0.33;;
65047;SDS011;52089;51.362;-2.384;2023-02-17T08:08:27;0.70;;;0.20;;
65047;SDS011;52089;51.362;-2.384;2023-02-17T08:12:27;0.63;;;0.20;;
65047;SDS011;52089;51.362;-2.384;2023-02-17T08:16:28;0.10;;;0.10;;
65047;SDS011;52089;51.362;-2.384;2023-02-17T08:20:09;0.67;;;0.20;;
65047;SDS011;52089;51.362;-2.384;2023-02-17T08:23:53;0.10;;;0.07;;
65047;SDS011;52089;51.362;-2.384;2023-02-17T08:27:35;0.70;;;0.20;;
65047;SDS011;52089;51.362;-2.384;2023-02-17T08:31:22;0.50;;;0.10;;
65047;SDS011;52089;51.362;-2.384;2023-02-17T08:35:13;0.53;;;0.10;;
65047;SDS011;52089;51.362;-2.384;2023-02-17T08:38:55;0.97;;;0.30;;
65047;SDS011;52089;51.362;-2.384;2023-02-17T08:42:38;0.40;;;0.17;;
65047;SDS011;52089;51.362;-2.384;2023-02-17T08:46:20;0.57;;;0.10;;
65047;SDS011;52089;51.362;-2.384;2023-02-17T08:50:03;0.97;;;0.20;;
65047;SDS011;52089;51.362;-2.384;2023-02-17T08:53:47;0.70;;;0.10;;
65047;SDS011;52089;51.362;-2.384;2023-02-17T08:57:29;0.70;;;0.10;;
65047;SDS011;52089;51.362;-2.384;2023-02-17T09:01:11;0.90;;;0.20;;
65047;SDS011;52089;51.362;-2.384;2023-02-17T09:04:53;0.30;;;0.10;;
65047;SDS011;52089;51.362;-2.384;2023-02-17T09:08:35;0.17;;;0.10;;
65047;SDS011;52089;51.362;-2.384;2023-02-17T09:12:19;0.20;;;0.07;;
65047;SDS011;52089;51.362;-2.384;2023-02-17T09:16:01;0.90;;;0.27;;
65047;SDS011;52089;51.362;-2.384;2023-02-17T09:19:43;1.27;;;0.10;;
65047;SDS011;52089;51.362;-2.384;2023-02-17T09:23:25;1.10;;;0.20;;
65047;SDS011;52089;51.362;-2.384;2023-02-17T09:27:07;0.43;;;0.10;;
65047;SDS011;52089;51.362;-2.384;2023-02-17T09:30:48;0.20;;;0.10;;
65047;SDS011;52089;51.362;-2.384;2023-02-17T09:34:32;0.10;;;0.10;;
65047;SDS011;52089;51.362;-2.384;2023-02-17T09:38:16;0.50;;;0.20;;
65047;SDS011;52089;51.362;-2.384;2023-02-17T09:41:57;0.20;;;0.10;;
65047;SDS011;52089;51.362;-2.384;2023-02-17T09:45:39;0.40;;;0.10;;
65047;SDS011;52089;51.362;-2.384;2023-02-17T09:49:29;0.20;;;0.10;;
65047;SDS011;52089;51.362;-2.384;2023-02-17T09:57:17;2.60;;;0.10;;
65047;SDS011;52089;51.362;-2.384;2023-02-17T10:01:04;0.23;;;0.10;;
65047;SDS011;52089;51.362;-2.384;2023-02-17T10:04:50;1.13;;;0.10;;
65047;SDS011;52089;51.362;-2.384;2023-02-17T10:08:35;0.43;;;0.20;;
65047;SDS011;52089;51.362;-2.384;2023-02-17T10:12:45;0.20;;;0.20;;
65047;SDS011;52089;51.362;-2.384;2023-02-17T10:16:34;0.10;;;0.10;;
65047;SDS011;52089;51.362;-2.384;2023-02-17T10:24:22;1.70;;;0.10;;
65047;SDS011;52089;51.362;-2.384;2023-02-17T10:28:08;0.10;;;0.10;;
65047;SDS011;52089;51.362;-2.384;2023-02-17T10:32:01;0.20;;;0.10;;
65047;SDS011;52089;51.362;-2.384;2023-02-17T10:35:52;0.80;;;0.20;;
65047;SDS011;52089;51.362;-2.384;2023-02-17T10:39:56;0.10;;;0.10;;
65047;SDS011;52089;51.362;-2.384;2023-02-17T10:43:38;0.10;;;0.10;;
65047;SDS011;52089;51.362;-2.384;2023-02-17T10:47:22;0.30;;;0.20;;
65047;SDS011;52089;51.362;-2.384;2023-02-17T10:51:04;0.10;;;0.10;;
65047;SDS011;52089;51.362;-2.384;2023-02-17T10:59:46;0.20;;;0.10;;
65047;SDS011;52089;51.362;-2.384;2023-02-17T11:03:28;0.10;;;0.10;;
65047;SDS011;52089;51.362;-2.384;2023-02-17T11:07:13;1.13;;;0.20;;
65047;SDS011;52089;51.362;-2.384;2023-02-17T11:10:57;0.27;;;0.10;;
65047;SDS011;52089;51.362;-2.384;2023-02-17T11:14:45;0.40;;;0.20;;
65047;SDS011;52089;51.362;-2.384;2023-02-17T11:18:30;0.23;;;0.10;;
65047;SDS011;52089;51.362;-2.384;2023-02-17T11:26:42;0.93;;;0.10;;
65047;SDS011;52089;51.362;-2.384;2023-02-17T11:30:34;0.40;;;0.17;;
65047;SDS011;52089;51.362;-2.384;2023-02-17T11:34:19;0.47;;;0.10;;
65047;SDS011;52089;51.362;-2.384;2023-02-17T11:38:10;1.07;;;0.20;;
65047;SDS011;52089;51.362;-2.384;2023-02-17T11:41:57;1.30;;;0.30;;
65047;SDS011;52089;51.362;-2.384;2023-02-17T11:49:34;1.13;;;0.27;;
65047;SDS011;52089;51.362;-2.384;2023-02-17T11:53:26;1.37;;;0.43;;
65047;SDS011;52089;51.362;-2.384;2023-02-17T11:57:34;0.73;;;0.20;;
65047;SDS011;52089;51.362;-2.384;2023-02-17T12:14:23;1.07;;;0.30;;
65047;SDS011;52089;51.362;-2.384;2023-02-17T12:34:29;0.53;;;0.33;;
65047;SDS011;52089;51.362;-2.384;2023-02-17T12:38:13;0.63;;;0.20;;
65047;SDS011;52089;51.362;-2.384;2023-02-17T12:41:58;0.57;;;0.20;;
65047;SDS011;52089;51.362;-2.384;2023-02-17T12:45:47;1.42;;;0.28;;
65047;SDS011;52089;51.362;-2.384;2023-02-17T12:49:35;1.20;;;0.30;;
65047;SDS011;52089;51.362;-2.384;2023-02-17T12:53:44;0.73;;;0.27;;
65047;SDS011;52089;51.362;-2.384;2023-02-17T13:01:38;0.40;;;0.20;;
65047;SDS011;52089;51.362;-2.384;2023-02-17T13:05:50;0.50;;;0.30;;
65047;SDS011;52089;51.362;-2.384;2023-02-17T13:09:54;0.47;;;0.20;;
65047;SDS011;52089;51.362;-2.384;2023-02-17T13:13:37;0.53;;;0.30;;
65047;SDS011;52089;51.362;-2.384;2023-02-17T13:24:57;0.83;;;0.20;;
65047;SDS011;52089;51.362;-2.384;2023-02-17T13:28:40;0.23;;;0.10;;
65047;SDS011;52089;51.362;-2.384;2023-02-17T13:32:26;0.70;;;0.20;;
65047;SDS011;52089;51.362;-2.384;2023-02-17T13:36:14;0.73;;;0.20;;
65047;SDS011;52089;51.362;-2.384;2023-02-17T13:40:07;0.97;;;0.20;;
65047;SDS011;52089;51.362;-2.384;2023-02-17T13:43:56;0.50;;;0.20;;
65047;SDS011;52089;51.362;-2.384;2023-02-17T13:47:38;0.70;;;0.20;;
65047;SDS011;52089;51.362;-2.384;2023-02-17T13:51:26;0.40;;;0.20;;
65047;SDS011;52089;51.362;-2.384;2023-02-17T13:55:16;0.90;;;0.20;;
65047;SDS011;52089;51.362;-2.384;2023-02-17T13:59:05;1.50;;;0.20;;
65047;SDS011;52089;51.362;-2.384;2023-02-17T14:02:56;0.50;;;0.15;;
65047;SDS011;52089;51.362;-2.384;2023-02-17T14:06:57;0.20;;;0.10;;
65047;SDS011;52089;51.362;-2.384;2023-02-17T14:10:40;0.50;;;0.20;;
65047;SDS011;52089;51.362;-2.384;2023-02-17T14:14:23;0.37;;;0.10;;
65047;SDS011;52089;51.362;-2.384;2023-02-17T14:18:12;1.03;;;0.20;;
65047;SDS011;52089;51.362;-2.384;2023-02-17T14:22:00;0.33;;;0.20;;
65047;SDS011;52089;51.362;-2.384;2023-02-17T14:25:47;0.43;;;0.20;;
65047;SDS011;52089;51.362;-2.384;2023-02-17T14:29:42;0.97;;;0.20;;
65047;SDS011;52089;51.362;-2.384;2023-02-17T14:33:25;0.40;;;0.20;;
65047;SDS011;52089;51.362;-2.384;2023-02-17T14:37:16;0.70;;;0.20;;
65047;SDS011;52089;51.362;-2.384;2023-02-17T14:41:03;0.93;;;0.10;;
65047;SDS011;52089;51.362;-2.384;2023-02-17T14:44:46;0.23;;;0.10;;
65047;SDS011;52089;51.362;-2.384;2023-02-17T14:48:27;0.50;;;0.20;;
65047;SDS011;52089;51.362;-2.384;2023-02-17T14:52:27;0.40;;;0.20;;
65047;SDS011;52089;51.362;-2.384;2023-02-17T14:56:24;0.25;;;0.20;;
65047;SDS011;52089;51.362;-2.384;2023-02-17T15:00:10;0.43;;;0.20;;
65047;SDS011;52089;51.362;-2.384;2023-02-17T15:03:53;0.30;;;0.20;;
65047;SDS011;52089;51.362;-2.384;2023-02-17T15:07:34;0.30;;;0.20;;
65047;SDS011;52089;51.362;-2.384;2023-02-17T15:11:23;0.20;;;0.10;;
65047;SDS011;52089;51.362;-2.384;2023-02-17T15:15:14;0.77;;;0.20;;
65047;SDS011;52089;51.362;-2.384;2023-02-17T15:18:56;0.40;;;0.20;;
65047;SDS011;52089;51.362;-2.384;2023-02-17T15:22:38;0.30;;;0.20;;
65047;SDS011;52089;51.362;-2.384;2023-02-17T15:26:21;0.80;;;0.20;;
65047;SDS011;52089;51.362;-2.384;2023-02-17T15:30:04;0.40;;;0.20;;
65047;SDS011;52089;51.362;-2.384;2023-02-17T15:33:54;0.47;;;0.13;;
65047;SDS011;52089;51.362;-2.384;2023-02-17T15:37:37;0.30;;;0.20;;
65047;SDS011;52089;51.362;-2.384;2023-02-17T15:41:20;0.43;;;0.20;;
65047;SDS011;52089;51.362;-2.384;2023-02-17T15:45:09;0.30;;;0.20;;
65047;SDS011;52089;51.362;-2.384;2023-02-17T15:48:53;0.60;;;0.20;;
65047;SDS011;52089;51.362;-2.384;2023-02-17T15:52:35;0.40;;;0.20;;
65047;SDS011;52089;51.362;-2.384;2023-02-17T15:56:20;0.20;;;0.20;;
65047;SDS011;52089;51.362;-2.384;2023-02-17T16:00:04;0.60;;;0.30;;
65047;SDS011;52089;51.362;-2.384;2023-02-17T16:03:56;0.77;;;0.20;;
65047;SDS011;52089;51.362;-2.384;2023-02-17T16:07:38;0.70;;;0.23;;
65047;SDS011;52089;51.362;-2.384;2023-02-17T16:11:20;0.60;;;0.30;;
65047;SDS011;52089;51.362;-2.384;2023-02-17T16:15:03;0.57;;;0.20;;
65047;SDS011;52089;51.362;-2.384;2023-02-17T16:18:48;0.50;;;0.20;;
65047;SDS011;52089;51.362;-2.384;2023-02-17T16:22:30;0.40;;;0.20;;
65047;SDS011;52089;51.362;-2.384;2023-02-17T16:30:34;1.00;;;0.20;;
65047;SDS011;52089;51.362;-2.384;2023-02-17T16:34:17;0.33;;;0.20;;
65047;SDS011;52089;51.362;-2.384;2023-02-17T16:38:04;1.00;;;0.10;;
65047;SDS011;52089;51.362;-2.384;2023-02-17T16:41:57;0.30;;;0.13;;
65047;SDS011;52089;51.362;-2.384;2023-02-17T16:45:40;0.33;;;0.20;;
65047;SDS011;52089;51.362;-2.384;2023-02-17T16:49:35;0.50;;;0.20;;
65047;SDS011;52089;51.362;-2.384;2023-02-17T16:53:20;0.30;;;0.10;;
65047;SDS011;52089;51.362;-2.384;2023-02-17T16:57:02;0.93;;;0.20;;
65047;SDS011;52089;51.362;-2.384;2023-02-17T17:00:44;0.27;;;0.20;;
65047;SDS011;52089;51.362;-2.384;2023-02-17T17:04:27;0.53;;;0.20;;
65047;SDS011;52089;51.362;-2.384;2023-02-17T17:08:10;0.30;;;0.20;;
65047;SDS011;52089;51.362;-2.384;2023-02-17T17:11:56;0.80;;;0.17;;
65047;SDS011;52089;51.362;-2.384;2023-02-17T17:15:40;0.37;;;0.13;;
65047;SDS011;52089;51.362;-2.384;2023-02-17T17:19:23;0.40;;;0.20;;
65047;SDS011;52089;51.362;-2.384;2023-02-17T17:23:06;0.30;;;0.20;;
65047;SDS011;52089;51.362;-2.384;2023-02-17T17:26:50;1.70;;;0.30;;
65047;SDS011;52089;51.362;-2.384;2023-02-17T17:30:33;0.27;;;0.20;;
65047;SDS011;52089;51.362;-2.384;2023-02-17T17:34:16;1.03;;;0.20;;
65047;SDS011;52089;51.362;-2.384;2023-02-17T17:37:58;0.80;;;0.10;;
65047;SDS011;52089;51.362;-2.384;2023-02-17T17:41:39;0.30;;;0.20;;
65047;SDS011;52089;51.362;-2.384;2023-02-17T17:45:22;0.30;;;0.20;;
65047;SDS011;52089;51.362;-2.384;2023-02-17T17:49:06;0.60;;;0.20;;
65047;SDS011;52089;51.362;-2.384;2023-02-17T17:52:50;0.60;;;0.27;;
65047;SDS011;52089;51.362;-2.384;2023-02-17T17:56:34;1.23;;;0.20;;
65047;SDS011;52089;51.362;-2.384;2023-02-17T18:00:19;0.50;;;0.20;;
65047;SDS011;52089;51.362;-2.384;2023-02-17T18:04:01;1.07;;;0.20;;
65047;SDS011;52089;51.362;-2.384;2023-02-17T18:07:43;0.60;;;0.30;;
65047;SDS011;52089;51.362;-2.384;2023-02-17T18:11:27;1.07;;;0.40;;
65047;SDS011;52089;51.362;-2.384;2023-02-17T18:15:10;1.13;;;0.40;;
65047;SDS011;52089;51.362;-2.384;2023-02-17T18:18:52;1.03;;;0.40;;
65047;SDS011;52089;51.362;-2.384;2023-02-17T18:22:35;1.50;;;0.70;;
65047;SDS011;52089;51.362;-2.384;2023-02-17T18:26:17;1.50;;;0.67;;
65047;SDS011;52089;51.362;-2.384;2023-02-17T18:29:59;1.30;;;0.70;;
65047;SDS011;52089;51.362;-2.384;2023-02-17T18:33:41;1.40;;;0.80;;
65047;SDS011;52089;51.362;-2.384;2023-02-17T18:37:24;1.43;;;0.83;;
65047;SDS011;52089;51.362;-2.384;2023-02-17T18:41:06;1.17;;;0.77;;
65047;SDS011;52089;51.362;-2.384;2023-02-17T18:44:48;1.17;;;0.70;;
65047;SDS011;52089;51.362;-2.384;2023-02-17T18:48:29;1.17;;;0.70;;
65047;SDS011;52089;51.362;-2.384;2023-02-17T18:52:11;0.90;;;0.60;;
65047;SDS011;52089;51.362;-2.384;2023-02-17T18:55:53;1.33;;;0.70;;
65047;SDS011;52089;51.362;-2.384;2023-02-17T18:59:35;1.40;;;0.50;;
65047;SDS011;52089;51.362;-2.384;2023-02-17T19:03:17;1.00;;;0.60;;
65047;SDS011;52089;51.362;-2.384;2023-02-17T19:06:59;0.87;;;0.50;;
65047;SDS011;52089;51.362;-2.384;2023-02-17T19:10:43;1.00;;;0.60;;
65047;SDS011;52089;51.362;-2.384;2023-02-17T19:14:25;1.20;;;0.50;;
65047;SDS011;52089;51.362;-2.384;2023-02-17T19:18:07;0.73;;;0.40;;
65047;SDS011;52089;51.362;-2.384;2023-02-17T19:21:49;0.80;;;0.50;;
65047;SDS011;52089;51.362;-2.384;2023-02-17T19:25:31;1.10;;;0.50;;
65047;SDS011;52089;51.362;-2.384;2023-02-17T19:29:12;1.17;;;0.40;;
65047;SDS011;52089;51.362;-2.384;2023-02-17T19:32:54;1.27;;;0.40;;
65047;SDS011;52089;51.362;-2.384;2023-02-17T19:36:36;0.90;;;0.40;;
65047;SDS011;52089;51.362;-2.384;2023-02-17T19:40:18;0.70;;;0.50;;
65047;SDS011;52089;51.362;-2.384;2023-02-17T19:44:00;1.03;;;0.40;;
65047;SDS011;52089;51.362;-2.384;2023-02-17T19:47:41;0.53;;;0.30;;
65047;SDS011;52089;51.362;-2.384;2023-02-17T19:51:23;0.70;;;0.30;;
65047;SDS011;52089;51.362;-2.384;2023-02-17T19:55:05;0.67;;;0.30;;
65047;SDS011;52089;51.362;-2.384;2023-02-17T19:58:47;0.40;;;0.30;;
65047;SDS011;52089;51.362;-2.384;2023-02-17T20:02:29;0.37;;;0.30;;
65047;SDS011;52089;51.362;-2.384;2023-02-17T20:06:14;0.50;;;0.40;;
65047;SDS011;52089;51.362;-2.384;2023-02-17T20:09:59;0.50;;;0.40;;
65047;SDS011;52089;51.362;-2.384;2023-02-17T20:13:40;1.00;;;0.40;;
65047;SDS011;52089;51.362;-2.384;2023-02-17T20:17:26;1.00;;;0.50;;
65047;SDS011;52089;51.362;-2.384;2023-02-17T20:21:08;1.07;;;0.33;;
65047;SDS011;52089;51.362;-2.384;2023-02-17T20:24:53;0.30;;;0.30;;
65047;SDS011;52089;51.362;-2.384;2023-02-17T20:28:34;0.40;;;0.37;;
65047;SDS011;52089;51.362;-2.384;2023-02-17T20:32:16;1.00;;;0.50;;
65047;SDS011;52089;51.362;-2.384;2023-02-17T20:35:58;0.40;;;0.30;;
65047;SDS011;52089;51.362;-2.384;2023-02-17T20:39:40;0.40;;;0.30;;
65047;SDS011;52089;51.362;-2.384;2023-02-17T20:43:22;0.70;;;0.40;;
65047;SDS011;52089;51.362;-2.384;2023-02-17T20:47:04;0.50;;;0.40;;
65047;SDS011;52089;51.362;-2.384;2023-02-17T20:50:46;0.40;;;0.30;;
65047;SDS011;52089;51.362;-2.384;2023-02-17T20:54:28;0.63;;;0.20;;
65047;SDS011;52089;51.362;-2.384;2023-02-17T20:58:10;0.60;;;0.30;;
65047;SDS011;52089;51.362;-2.384;2023-02-17T21:01:52;0.50;;;0.40;;
65047;SDS011;52089;51.362;-2.384;2023-02-17T21:05:34;0.40;;;0.30;;
65047;SDS011;52089;51.362;-2.384;2023-02-17T21:09:17;0.40;;;0.30;;
65047;SDS011;52089;51.362;-2.384;2023-02-17T21:12:59;0.40;;;0.20;;
65047;SDS011;52089;51.362;-2.384;2023-02-17T21:16:41;0.50;;;0.40;;
65047;SDS011;52089;51.362;-2.384;2023-02-17T21:20:23;0.63;;;0.30;;
65047;SDS011;52089;51.362;-2.384;2023-02-17T21:24:04;1.00;;;0.20;;
65047;SDS011;52089;51.362;-2.384;2023-02-17T21:27:46;0.87;;;0.30;;
65047;SDS011;52089;51.362;-2.384;2023-02-17T21:31:28;0.40;;;0.20;;
65047;SDS011;52089;51.362;-2.384;2023-02-17T21:35:10;0.20;;;0.20;;
65047;SDS011;52089;51.362;-2.384;2023-02-17T21:38:52;0.50;;;0.30;;
65047;SDS011;52089;51.362;-2.384;2023-02-17T21:42:37;0.30;;;0.20;;
65047;SDS011;52089;51.362;-2.384;2023-02-17T21:46:38;0.57;;;0.37;;
65047;SDS011;52089;51.362;-2.384;2023-02-17T21:50:22;0.37;;;0.30;;
65047;SDS011;52089;51.362;-2.384;2023-02-17T21:54:05;0.30;;;0.20;;
65047;SDS011;52089;51.362;-2.384;2023-02-17T21:57:47;0.23;;;0.20;;
65047;SDS011;52089;51.362;-2.384;2023-02-17T22:01:29;0.33;;;0.30;;
65047;SDS011;52089;51.362;-2.384;2023-02-17T22:05:11;0.30;;;0.23;;
65047;SDS011;52089;51.362;-2.384;2023-02-17T22:08:53;0.67;;;0.20;;
65047;SDS011;52089;51.362;-2.384;2023-02-17T22:12:36;0.40;;;0.23;;
65047;SDS011;52089;51.362;-2.384;2023-02-17T22:16:18;0.40;;;0.20;;
65047;SDS011;52089;51.362;-2.384;2023-02-17T22:20:00;0.30;;;0.20;;
65047;SDS011;52089;51.362;-2.384;2023-02-17T22:23:42;0.20;;;0.20;;
65047;SDS011;52089;51.362;-2.384;2023-02-17T22:27:25;0.20;;;0.13;;
65047;SDS011;52089;51.362;-2.384;2023-02-17T22:31:06;0.40;;;0.20;;
65047;SDS011;52089;51.362;-2.384;2023-02-17T22:34:49;0.60;;;0.20;;
65047;SDS011;52089;51.362;-2.384;2023-02-17T22:38:32;0.20;;;0.17;;
65047;SDS011;52089;51.362;-2.384;2023-02-17T22:42:14;0.23;;;0.20;;
65047;SDS011;52089;51.362;-2.384;2023-02-17T22:45:57;0.30;;;0.30;;
65047;SDS011;52089;51.362;-2.384;2023-02-17T22:49:39;0.27;;;0.20;;
65047;SDS011;52089;51.362;-2.384;2023-02-17T22:53:22;0.20;;;0.20;;
65047;SDS011;52089;51.362;-2.384;2023-02-17T22:57:04;0.30;;;0.20;;
65047;SDS011;52089;51.362;-2.384;2023-02-17T23:00:46;0.73;;;0.40;;
65047;SDS011;52089;51.362;-2.384;2023-02-17T23:04:28;0.20;;;0.20;;
65047;SDS011;52089;51.362;-2.384;2023-02-17T23:08:10;0.20;;;0.20;;
65047;SDS011;52089;51.362;-2.384;2023-02-17T23:11:52;0.20;;;0.20;;
65047;SDS011;52089;51.362;-2.384;2023-02-17T23:15:38;0.20;;;0.20;;
65047;SDS011;52089;51.362;-2.384;2023-02-17T23:19:22;0.30;;;0.20;;
65047;SDS011;52089;51.362;-2.384;2023-02-17T23:23:04;0.27;;;0.20;;
65047;SDS011;52089;51.362;-2.384;2023-02-17T23:26:47;0.37;;;0.20;;
65047;SDS011;52089;51.362;-2.384;2023-02-17T23:30:30;0.20;;;0.20;;
65047;SDS011;52089;51.362;-2.384;2023-02-17T23:34:13;0.37;;;0.20;;
65047;SDS011;52089;51.362;-2.384;2023-02-17T23:37:56;1.43;;;0.47;;